sensor_id;sensor_type;location;lat;lon;timestamp;temperature;humidity
47532;DHT22;33273;52.254;7.988;2022-11-20T00:01:15;-5.40;89.90
47532;DHT22;33273;52.254;7.988;2022-11-20T00:03:41;-5.40;89.80
47532;DHT22;33273;52.254;7.988;2022-11-20T00:06:18;-5.40;89.60
47532;DHT22;33273;52.254;7.988;2022-11-20T00:08:45;-5.40;89.40
47532;DHT22;33273;52.254;7.988;2022-11-20T00:11:15;-5.50;89.30
47532;DHT22;33273;52.254;7.988;2022-11-20T00:13:45;-5.50;89.20
47532;DHT22;33273;52.254;7.988;2022-11-20T00:16:14;-5.50;89.20
47532;DHT22;33273;52.254;7.988;2022-11-20T00:18:41;-5.50;89.60
47532;DHT22;33273;52.254;7.988;2022-11-20T00:21:13;-5.60;89.60
47532;DHT22;33273;52.254;7.988;2022-11-20T00:23:39;-5.60;89.70
47532;DHT22;33273;52.254;7.988;2022-11-20T00:26:07;-5.60;89.80
47532;DHT22;33273;52.254;7.988;2022-11-20T00:28:34;-5.60;89.80
47532;DHT22;33273;52.254;7.988;2022-11-20T00:31:05;-5.60;89.80
47532;DHT22;33273;52.254;7.988;2022-11-20T00:33:32;-5.60;89.70
47532;DHT22;33273;52.254;7.988;2022-11-20T00:36:06;-5.60;89.40
47532;DHT22;33273;52.254;7.988;2022-11-20T00:38:32;-5.60;89.40
47532;DHT22;33273;52.254;7.988;2022-11-20T00:40:59;-5.70;89.30
47532;DHT22;33273;52.254;7.988;2022-11-20T00:43:25;-5.70;89.10
47532;DHT22;33273;52.254;7.988;2022-11-20T00:46:00;-5.70;89.20
47532;DHT22;33273;52.254;7.988;2022-11-20T00:48:26;-5.70;89.00
47532;DHT22;33273;52.254;7.988;2022-11-20T00:50:53;-5.70;88.80
47532;DHT22;33273;52.254;7.988;2022-11-20T00:53:20;-5.70;88.80
47532;DHT22;33273;52.254;7.988;2022-11-20T00:56:00;-5.70;88.80
47532;DHT22;33273;52.254;7.988;2022-11-20T00:58:33;-5.80;88.60
47532;DHT22;33273;52.254;7.988;2022-11-20T01:01:24;-5.70;88.60
47532;DHT22;33273;52.254;7.988;2022-11-20T01:03:52;-5.80;88.60
47532;DHT22;33273;52.254;7.988;2022-11-20T01:06:31;-5.80;88.50
47532;DHT22;33273;52.254;7.988;2022-11-20T01:09:00;-5.80;88.40
47532;DHT22;33273;52.254;7.988;2022-11-20T01:11:31;-5.80;88.20
47532;DHT22;33273;52.254;7.988;2022-11-20T01:13:59;-5.80;88.10
47532;DHT22;33273;52.254;7.988;2022-11-20T01:16:34;-5.80;88.10
47532;DHT22;33273;52.254;7.988;2022-11-20T01:19:03;-5.80;87.90
47532;DHT22;33273;52.254;7.988;2022-11-20T01:21:31;-5.90;87.80
47532;DHT22;33273;52.254;7.988;2022-11-20T01:23:59;-5.90;87.60
47532;DHT22;33273;52.254;7.988;2022-11-20T01:26:28;-5.90;87.60
47532;DHT22;33273;52.254;7.988;2022-11-20T01:28:55;-6.00;87.30
47532;DHT22;33273;52.254;7.988;2022-11-20T01:31:34;-6.00;87.40
47532;DHT22;33273;52.254;7.988;2022-11-20T01:34:05;-6.00;87.30
47532;DHT22;33273;52.254;7.988;2022-11-20T01:36:34;-6.00;87.30
47532;DHT22;33273;52.254;7.988;2022-11-20T01:39:04;-6.00;87.30
47532;DHT22;33273;52.254;7.988;2022-11-20T01:41:31;-6.00;87.40
47532;DHT22;33273;52.254;7.988;2022-11-20T01:44:20;-6.00;87.40
47532;DHT22;33273;52.254;7.988;2022-11-20T01:46:57;-6.10;87.20
47532;DHT22;33273;52.254;7.988;2022-11-20T01:49:42;-6.00;87.10
47532;DHT22;33273;52.254;7.988;2022-11-20T01:52:21;-6.10;87.00
47532;DHT22;33273;52.254;7.988;2022-11-20T01:55:09;-6.10;87.00
47532;DHT22;33273;52.254;7.988;2022-11-20T01:57:38;-6.10;87.00
47532;DHT22;33273;52.254;7.988;2022-11-20T02:00:07;-6.10;87.10
47532;DHT22;33273;52.254;7.988;2022-11-20T02:02:42;-6.10;87.00
47532;DHT22;33273;52.254;7.988;2022-11-20T02:05:30;-6.10;87.00
47532;DHT22;33273;52.254;7.988;2022-11-20T02:07:57;-6.20;86.90
47532;DHT22;33273;52.254;7.988;2022-11-20T02:10:26;-6.20;86.80
47532;DHT22;33273;52.254;7.988;2022-11-20T02:12:54;-6.20;86.80
47532;DHT22;33273;52.254;7.988;2022-11-20T02:15:38;-6.20;86.80
47532;DHT22;33273;52.254;7.988;2022-11-20T02:18:06;-6.20;86.70
47532;DHT22;33273;52.254;7.988;2022-11-20T02:20:32;-6.20;86.80
47532;DHT22;33273;52.254;7.988;2022-11-20T02:26:12;-6.20;87.00
47532;DHT22;33273;52.254;7.988;2022-11-20T02:28:40;-6.20;87.10
47532;DHT22;33273;52.254;7.988;2022-11-20T02:31:05;-6.20;87.30
47532;DHT22;33273;52.254;7.988;2022-11-20T02:33:33;-6.20;87.20
47532;DHT22;33273;52.254;7.988;2022-11-20T02:35:58;-6.20;87.20
47532;DHT22;33273;52.254;7.988;2022-11-20T02:38:24;-6.20;87.20
47532;DHT22;33273;52.254;7.988;2022-11-20T02:40:50;-6.30;87.20
47532;DHT22;33273;52.254;7.988;2022-11-20T02:43:16;-6.30;87.20
47532;DHT22;33273;52.254;7.988;2022-11-20T02:45:42;-6.30;87.20
47532;DHT22;33273;52.254;7.988;2022-11-20T02:48:09;-6.30;87.40
47532;DHT22;33273;52.254;7.988;2022-11-20T02:50:39;-6.30;87.60
47532;DHT22;33273;52.254;7.988;2022-11-20T02:53:06;-6.30;87.50
47532;DHT22;33273;52.254;7.988;2022-11-20T02:55:32;-6.30;87.30
47532;DHT22;33273;52.254;7.988;2022-11-20T02:57:59;-6.30;87.20
47532;DHT22;33273;52.254;7.988;2022-11-20T03:00:25;-6.30;87.10
47532;DHT22;33273;52.254;7.988;2022-11-20T03:02:51;-6.30;87.10
47532;DHT22;33273;52.254;7.988;2022-11-20T03:05:17;-6.40;86.90
47532;DHT22;33273;52.254;7.988;2022-11-20T03:07:44;-6.30;87.20
47532;DHT22;33273;52.254;7.988;2022-11-20T03:10:11;-6.30;87.20
47532;DHT22;33273;52.254;7.988;2022-11-20T03:12:37;-6.40;86.90
47532;DHT22;33273;52.254;7.988;2022-11-20T03:15:03;-6.40;87.00
47532;DHT22;33273;52.254;7.988;2022-11-20T03:17:29;-6.50;87.10
47532;DHT22;33273;52.254;7.988;2022-11-20T03:19:56;-6.40;87.10
47532;DHT22;33273;52.254;7.988;2022-11-20T03:22:22;-6.40;87.20
47532;DHT22;33273;52.254;7.988;2022-11-20T03:24:48;-6.50;87.20
47532;DHT22;33273;52.254;7.988;2022-11-20T03:27:13;-6.40;87.30
47532;DHT22;33273;52.254;7.988;2022-11-20T03:29:39;-6.40;87.20
47532;DHT22;33273;52.254;7.988;2022-11-20T03:32:05;-6.40;87.10
47532;DHT22;33273;52.254;7.988;2022-11-20T03:34:31;-6.40;87.10
47532;DHT22;33273;52.254;7.988;2022-11-20T03:36:57;-6.40;87.10
47532;DHT22;33273;52.254;7.988;2022-11-20T03:39:23;-6.50;87.00
47532;DHT22;33273;52.254;7.988;2022-11-20T03:41:49;-6.50;86.80
47532;DHT22;33273;52.254;7.988;2022-11-20T03:44:15;-6.50;86.80
47532;DHT22;33273;52.254;7.988;2022-11-20T03:46:41;-6.50;86.80
47532;DHT22;33273;52.254;7.988;2022-11-20T03:49:07;-6.50;86.90
47532;DHT22;33273;52.254;7.988;2022-11-20T03:51:34;-6.60;86.60
47532;DHT22;33273;52.254;7.988;2022-11-20T03:54:04;-6.50;86.80
47532;DHT22;33273;52.254;7.988;2022-11-20T03:56:31;-6.60;86.70
47532;DHT22;33273;52.254;7.988;2022-11-20T03:58:58;-6.60;86.70
47532;DHT22;33273;52.254;7.988;2022-11-20T04:01:26;-6.50;86.90
47532;DHT22;33273;52.254;7.988;2022-11-20T04:03:54;-6.60;86.80
47532;DHT22;33273;52.254;7.988;2022-11-20T04:06:29;-6.50;86.90
47532;DHT22;33273;52.254;7.988;2022-11-20T04:08:57;-6.50;86.80
47532;DHT22;33273;52.254;7.988;2022-11-20T04:11:24;-6.60;86.50
47532;DHT22;33273;52.254;7.988;2022-11-20T04:13:56;-6.60;86.40
47532;DHT22;33273;52.254;7.988;2022-11-20T04:16:23;-6.60;86.50
47532;DHT22;33273;52.254;7.988;2022-11-20T04:18:57;-6.60;86.50
47532;DHT22;33273;52.254;7.988;2022-11-20T04:21:24;-6.60;86.60
47532;DHT22;33273;52.254;7.988;2022-11-20T04:23:51;-6.60;86.50
47532;DHT22;33273;52.254;7.988;2022-11-20T04:26:19;-6.70;86.50
47532;DHT22;33273;52.254;7.988;2022-11-20T04:28:46;-6.70;86.40
47532;DHT22;33273;52.254;7.988;2022-11-20T04:31:20;-6.70;86.50
47532;DHT22;33273;52.254;7.988;2022-11-20T04:33:46;-6.70;86.60
47532;DHT22;33273;52.254;7.988;2022-11-20T04:36:21;-6.70;86.60
47532;DHT22;33273;52.254;7.988;2022-11-20T04:38:59;-6.70;86.50
47532;DHT22;33273;52.254;7.988;2022-11-20T04:41:30;-6.70;86.50
47532;DHT22;33273;52.254;7.988;2022-11-20T04:43:59;-6.70;86.40
47532;DHT22;33273;52.254;7.988;2022-11-20T04:46:28;-6.70;86.30
47532;DHT22;33273;52.254;7.988;2022-11-20T04:48:55;-6.70;86.20
47532;DHT22;33273;52.254;7.988;2022-11-20T04:51:21;-6.70;86.20
47532;DHT22;33273;52.254;7.988;2022-11-20T04:53:47;-6.70;86.30
47532;DHT22;33273;52.254;7.988;2022-11-20T04:56:13;-6.70;86.20
47532;DHT22;33273;52.254;7.988;2022-11-20T04:58:40;-6.70;86.30
47532;DHT22;33273;52.254;7.988;2022-11-20T05:01:09;-6.70;86.30
47532;DHT22;33273;52.254;7.988;2022-11-20T05:03:35;-6.80;86.30
47532;DHT22;33273;52.254;7.988;2022-11-20T05:06:03;-6.70;86.40
47532;DHT22;33273;52.254;7.988;2022-11-20T05:08:30;-6.80;85.80
47532;DHT22;33273;52.254;7.988;2022-11-20T05:11:01;-6.80;85.70
47532;DHT22;33273;52.254;7.988;2022-11-20T05:13:27;-6.80;85.80
47532;DHT22;33273;52.254;7.988;2022-11-20T05:15:53;-6.80;85.80
47532;DHT22;33273;52.254;7.988;2022-11-20T05:18:19;-6.80;85.70
47532;DHT22;33273;52.254;7.988;2022-11-20T05:20:45;-6.90;85.80
47532;DHT22;33273;52.254;7.988;2022-11-20T05:23:11;-6.90;85.80
47532;DHT22;33273;52.254;7.988;2022-11-20T05:25:37;-6.90;85.90
47532;DHT22;33273;52.254;7.988;2022-11-20T05:28:04;-6.90;85.80
47532;DHT22;33273;52.254;7.988;2022-11-20T05:30:30;-6.90;85.90
47532;DHT22;33273;52.254;7.988;2022-11-20T05:32:55;-6.80;86.00
47532;DHT22;33273;52.254;7.988;2022-11-20T05:35:21;-6.90;86.00
47532;DHT22;33273;52.254;7.988;2022-11-20T05:37:48;-6.90;86.00
47532;DHT22;33273;52.254;7.988;2022-11-20T05:40:14;-6.80;86.00
47532;DHT22;33273;52.254;7.988;2022-11-20T05:42:40;-6.90;85.90
47532;DHT22;33273;52.254;7.988;2022-11-20T05:45:09;-6.90;85.90
47532;DHT22;33273;52.254;7.988;2022-11-20T05:47:35;-6.90;86.00
47532;DHT22;33273;52.254;7.988;2022-11-20T05:50:01;-6.90;86.10
47532;DHT22;33273;52.254;7.988;2022-11-20T05:52:30;-6.80;85.90
47532;DHT22;33273;52.254;7.988;2022-11-20T05:54:56;-6.90;85.90
47532;DHT22;33273;52.254;7.988;2022-11-20T05:57:22;-6.90;85.80
47532;DHT22;33273;52.254;7.988;2022-11-20T05:59:48;-6.90;85.80
47532;DHT22;33273;52.254;7.988;2022-11-20T06:02:14;-6.90;85.80
47532;DHT22;33273;52.254;7.988;2022-11-20T06:04:40;-6.90;85.90
47532;DHT22;33273;52.254;7.988;2022-11-20T06:07:06;-6.90;85.80
47532;DHT22;33273;52.254;7.988;2022-11-20T06:09:32;-6.90;85.80
47532;DHT22;33273;52.254;7.988;2022-11-20T06:11:58;-6.90;85.80
47532;DHT22;33273;52.254;7.988;2022-11-20T06:14:24;-6.90;85.70
47532;DHT22;33273;52.254;7.988;2022-11-20T06:16:50;-7.00;85.60
47532;DHT22;33273;52.254;7.988;2022-11-20T06:19:17;-6.90;85.80
47532;DHT22;33273;52.254;7.988;2022-11-20T06:21:43;-6.90;85.70
47532;DHT22;33273;52.254;7.988;2022-11-20T06:24:09;-7.00;85.50
47532;DHT22;33273;52.254;7.988;2022-11-20T06:26:36;-7.00;85.50
47532;DHT22;33273;52.254;7.988;2022-11-20T06:29:02;-7.00;85.60
47532;DHT22;33273;52.254;7.988;2022-11-20T06:31:28;-6.90;85.80
47532;DHT22;33273;52.254;7.988;2022-11-20T06:33:54;-6.90;85.70
47532;DHT22;33273;52.254;7.988;2022-11-20T06:36:22;-7.00;85.60
47532;DHT22;33273;52.254;7.988;2022-11-20T06:38:54;-7.00;85.60
47532;DHT22;33273;52.254;7.988;2022-11-20T06:41:21;-6.90;85.80
47532;DHT22;33273;52.254;7.988;2022-11-20T06:43:50;-6.90;85.70
47532;DHT22;33273;52.254;7.988;2022-11-20T06:46:17;-6.80;87.70
47532;DHT22;33273;52.254;7.988;2022-11-20T06:48:44;-6.80;87.30
47532;DHT22;33273;52.254;7.988;2022-11-20T06:51:10;-6.80;87.00
47532;DHT22;33273;52.254;7.988;2022-11-20T06:53:36;-6.90;86.80
47532;DHT22;33273;52.254;7.988;2022-11-20T06:56:03;-6.90;86.60
47532;DHT22;33273;52.254;7.988;2022-11-20T06:58:31;-6.90;86.70
47532;DHT22;33273;52.254;7.988;2022-11-20T07:01:11;-6.90;86.90
47532;DHT22;33273;52.254;7.988;2022-11-20T07:03:42;-6.80;87.30
47532;DHT22;33273;52.254;7.988;2022-11-20T07:06:11;-6.70;87.70
47532;DHT22;33273;52.254;7.988;2022-11-20T07:08:37;-6.70;87.80
47532;DHT22;33273;52.254;7.988;2022-11-20T07:11:05;-6.70;88.10
47532;DHT22;33273;52.254;7.988;2022-11-20T07:13:34;-6.60;88.10
47532;DHT22;33273;52.254;7.988;2022-11-20T07:16:06;-6.60;88.20
47532;DHT22;33273;52.254;7.988;2022-11-20T07:18:34;-6.50;88.70
47532;DHT22;33273;52.254;7.988;2022-11-20T07:21:04;-6.40;88.90
47532;DHT22;33273;52.254;7.988;2022-11-20T07:23:32;-6.40;89.20
47532;DHT22;33273;52.254;7.988;2022-11-20T07:26:09;-6.30;89.40
47532;DHT22;33273;52.254;7.988;2022-11-20T07:28:35;-6.30;89.40
47532;DHT22;33273;52.254;7.988;2022-11-20T07:31:03;-6.20;89.70
47532;DHT22;33273;52.254;7.988;2022-11-20T07:33:33;-6.10;90.00
47532;DHT22;33273;52.254;7.988;2022-11-20T07:36:00;-6.10;90.00
47532;DHT22;33273;52.254;7.988;2022-11-20T07:38:26;-6.10;90.00
47532;DHT22;33273;52.254;7.988;2022-11-20T07:40:58;-6.00;90.30
47532;DHT22;33273;52.254;7.988;2022-11-20T07:43:27;-5.90;90.70
47532;DHT22;33273;52.254;7.988;2022-11-20T07:45:58;-5.90;91.10
47532;DHT22;33273;52.254;7.988;2022-11-20T07:48:25;-5.80;91.20
47532;DHT22;33273;52.254;7.988;2022-11-20T07:50:57;-5.70;91.70
47532;DHT22;33273;52.254;7.988;2022-11-20T07:53:24;-5.60;92.10
47532;DHT22;33273;52.254;7.988;2022-11-20T07:55:52;-5.40;92.60
47532;DHT22;33273;52.254;7.988;2022-11-20T07:58:20;-5.30;93.10
47532;DHT22;33273;52.254;7.988;2022-11-20T08:00:46;-5.20;93.60
47532;DHT22;33273;52.254;7.988;2022-11-20T08:03:12;-5.10;93.90
47532;DHT22;33273;52.254;7.988;2022-11-20T08:05:38;-5.00;94.20
47532;DHT22;33273;52.254;7.988;2022-11-20T08:08:04;-4.90;94.40
47532;DHT22;33273;52.254;7.988;2022-11-20T08:10:35;-4.80;94.80
47532;DHT22;33273;52.254;7.988;2022-11-20T08:13:01;-4.60;95.00
47532;DHT22;33273;52.254;7.988;2022-11-20T08:15:49;-4.60;95.00
47532;DHT22;33273;52.254;7.988;2022-11-20T08:18:18;-4.50;95.20
47532;DHT22;33273;52.254;7.988;2022-11-20T08:20:46;-4.40;95.10
47532;DHT22;33273;52.254;7.988;2022-11-20T08:23:12;-4.30;95.20
47532;DHT22;33273;52.254;7.988;2022-11-20T08:25:41;-4.30;95.40
47532;DHT22;33273;52.254;7.988;2022-11-20T08:28:09;-4.10;95.60
47532;DHT22;33273;52.254;7.988;2022-11-20T08:30:40;-4.10;95.70
47532;DHT22;33273;52.254;7.988;2022-11-20T08:33:08;-4.00;95.50
47532;DHT22;33273;52.254;7.988;2022-11-20T08:35:38;-3.90;95.80
47532;DHT22;33273;52.254;7.988;2022-11-20T08:38:08;-3.80;95.70
47532;DHT22;33273;52.254;7.988;2022-11-20T08:40:37;-3.70;95.70
47532;DHT22;33273;52.254;7.988;2022-11-20T08:43:03;-3.60;95.70
47532;DHT22;33273;52.254;7.988;2022-11-20T08:45:30;-3.50;95.80
47532;DHT22;33273;52.254;7.988;2022-11-20T08:48:00;-3.50;95.60
47532;DHT22;33273;52.254;7.988;2022-11-20T08:50:26;-3.40;95.60
47532;DHT22;33273;52.254;7.988;2022-11-20T08:52:52;-3.30;95.60
47532;DHT22;33273;52.254;7.988;2022-11-20T08:55:21;-3.20;95.00
47532;DHT22;33273;52.254;7.988;2022-11-20T08:57:50;-3.10;94.90
47532;DHT22;33273;52.254;7.988;2022-11-20T09:00:16;-3.10;94.80
47532;DHT22;33273;52.254;7.988;2022-11-20T09:02:44;-3.00;94.90
47532;DHT22;33273;52.254;7.988;2022-11-20T09:05:10;-2.90;95.00
47532;DHT22;33273;52.254;7.988;2022-11-20T09:07:39;-2.80;95.10
47532;DHT22;33273;52.254;7.988;2022-11-20T09:10:06;-2.80;95.00
47532;DHT22;33273;52.254;7.988;2022-11-20T09:12:34;-2.70;94.90
47532;DHT22;33273;52.254;7.988;2022-11-20T09:14:59;-2.60;95.00
47532;DHT22;33273;52.254;7.988;2022-11-20T09:17:25;-2.50;95.20
47532;DHT22;33273;52.254;7.988;2022-11-20T09:19:51;-2.50;95.10
47532;DHT22;33273;52.254;7.988;2022-11-20T09:22:20;-2.40;95.10
47532;DHT22;33273;52.254;7.988;2022-11-20T09:24:46;-2.30;95.30
47532;DHT22;33273;52.254;7.988;2022-11-20T09:27:12;-2.20;95.30
47532;DHT22;33273;52.254;7.988;2022-11-20T09:29:41;-2.20;94.60
47532;DHT22;33273;52.254;7.988;2022-11-20T09:32:08;-2.20;94.20
47532;DHT22;33273;52.254;7.988;2022-11-20T09:34:38;-2.10;94.20
47532;DHT22;33273;52.254;7.988;2022-11-20T09:37:06;-2.00;94.00
47532;DHT22;33273;52.254;7.988;2022-11-20T09:39:32;-1.90;94.10
47532;DHT22;33273;52.254;7.988;2022-11-20T09:48:15;-1.50;96.70
47532;DHT22;33273;52.254;7.988;2022-11-20T09:51:36;-1.40;96.20
47532;DHT22;33273;52.254;7.988;2022-11-20T09:56:13;-1.30;94.70
47532;DHT22;33273;52.254;7.988;2022-11-20T09:58:42;-1.20;94.00
47532;DHT22;33273;52.254;7.988;2022-11-20T10:01:22;-1.20;93.80
47532;DHT22;33273;52.254;7.988;2022-11-20T10:06:49;-1.00;94.00
47532;DHT22;33273;52.254;7.988;2022-11-20T10:09:25;-0.90;94.90
47532;DHT22;33273;52.254;7.988;2022-11-20T10:12:23;-0.90;93.60
47532;DHT22;33273;52.254;7.988;2022-11-20T10:15:12;-0.90;92.90
47532;DHT22;33273;52.254;7.988;2022-11-20T10:31:41;-0.80;92.00
47532;DHT22;33273;52.254;7.988;2022-11-20T10:37:25;-0.70;91.30
47532;DHT22;33273;52.254;7.988;2022-11-20T10:42:48;-0.70;89.30
47532;DHT22;33273;52.254;7.988;2022-11-20T10:45:38;-0.70;89.80
47532;DHT22;33273;52.254;7.988;2022-11-20T10:48:26;-0.60;92.00
47532;DHT22;33273;52.254;7.988;2022-11-20T10:57:00;-0.20;92.10
47532;DHT22;33273;52.254;7.988;2022-11-20T11:02:21;0.10;93.50
47532;DHT22;33273;52.254;7.988;2022-11-20T11:04:50;0.20;91.80
47532;DHT22;33273;52.254;7.988;2022-11-20T11:07:27;0.30;91.60
47532;DHT22;33273;52.254;7.988;2022-11-20T11:09:59;0.50;91.60
47532;DHT22;33273;52.254;7.988;2022-11-20T11:12:28;0.60;91.50
47532;DHT22;33273;52.254;7.988;2022-11-20T11:14:56;0.70;89.80
47532;DHT22;33273;52.254;7.988;2022-11-20T11:17:31;0.70;88.60
47532;DHT22;33273;52.254;7.988;2022-11-20T11:20:18;0.70;87.00
47532;DHT22;33273;52.254;7.988;2022-11-20T11:22:56;0.70;83.90
47532;DHT22;33273;52.254;7.988;2022-11-20T11:25:29;0.70;82.20
47532;DHT22;33273;52.254;7.988;2022-11-20T11:28:02;0.60;80.80
47532;DHT22;33273;52.254;7.988;2022-11-20T11:30:43;0.70;81.00
47532;DHT22;33273;52.254;7.988;2022-11-20T11:33:11;0.70;81.70
47532;DHT22;33273;52.254;7.988;2022-11-20T11:35:49;0.80;81.10
47532;DHT22;33273;52.254;7.988;2022-11-20T11:40:56;0.90;79.70
47532;DHT22;33273;52.254;7.988;2022-11-20T11:43:29;0.90;79.70
47532;DHT22;33273;52.254;7.988;2022-11-20T11:46:30;1.00;79.80
47532;DHT22;33273;52.254;7.988;2022-11-20T11:54:01;1.20;77.90
47532;DHT22;33273;52.254;7.988;2022-11-20T11:56:29;1.30;77.40
47532;DHT22;33273;52.254;7.988;2022-11-20T11:58:57;1.40;77.10
47532;DHT22;33273;52.254;7.988;2022-11-20T12:01:33;1.50;77.10
47532;DHT22;33273;52.254;7.988;2022-11-20T12:04:17;1.50;75.50
47532;DHT22;33273;52.254;7.988;2022-11-20T12:06:50;1.60;75.80
47532;DHT22;33273;52.254;7.988;2022-11-20T12:09:18;1.70;75.60
47532;DHT22;33273;52.254;7.988;2022-11-20T12:14:27;1.80;74.70
47532;DHT22;33273;52.254;7.988;2022-11-20T12:16:54;1.70;74.10
47532;DHT22;33273;52.254;7.988;2022-11-20T12:19:23;1.70;73.30
47532;DHT22;33273;52.254;7.988;2022-11-20T12:27:41;2.10;80.20
47532;DHT22;33273;52.254;7.988;2022-11-20T12:30:12;2.00;77.40
47532;DHT22;33273;52.254;7.988;2022-11-20T12:41:33;1.80;77.00
47532;DHT22;33273;52.254;7.988;2022-11-20T12:52:46;1.50;75.00
47532;DHT22;33273;52.254;7.988;2022-11-20T12:55:36;1.40;74.20
47532;DHT22;33273;52.254;7.988;2022-11-20T12:58:38;1.30;75.00
47532;DHT22;33273;52.254;7.988;2022-11-20T13:07:05;1.30;76.20
47532;DHT22;33273;52.254;7.988;2022-11-20T13:09:32;1.40;76.30
47532;DHT22;33273;52.254;7.988;2022-11-20T13:19:59;1.40;76.90
47532;DHT22;33273;52.254;7.988;2022-11-20T13:22:52;1.40;76.50
47532;DHT22;33273;52.254;7.988;2022-11-20T13:25:30;1.40;76.70
47532;DHT22;33273;52.254;7.988;2022-11-20T13:27:58;1.30;77.00
47532;DHT22;33273;52.254;7.988;2022-11-20T13:30:28;1.30;77.40
47532;DHT22;33273;52.254;7.988;2022-11-20T13:32:57;1.30;77.60
47532;DHT22;33273;52.254;7.988;2022-11-20T13:35:42;1.30;77.70
47532;DHT22;33273;52.254;7.988;2022-11-20T13:38:11;1.30;77.90
47532;DHT22;33273;52.254;7.988;2022-11-20T13:40:49;1.20;77.90
47532;DHT22;33273;52.254;7.988;2022-11-20T13:45:54;1.30;78.60
47532;DHT22;33273;52.254;7.988;2022-11-20T13:48:22;1.30;78.80
47532;DHT22;33273;52.254;7.988;2022-11-20T13:59:05;1.30;80.00
47532;DHT22;33273;52.254;7.988;2022-11-20T14:01:34;1.30;80.30
47532;DHT22;33273;52.254;7.988;2022-11-20T14:04:07;1.30;80.60
47532;DHT22;33273;52.254;7.988;2022-11-20T14:06:45;1.40;80.90
47532;DHT22;33273;52.254;7.988;2022-11-20T14:09:35;1.40;81.00
47532;DHT22;33273;52.254;7.988;2022-11-20T14:12:02;1.40;80.90
47532;DHT22;33273;52.254;7.988;2022-11-20T14:14:30;1.40;80.50
47532;DHT22;33273;52.254;7.988;2022-11-20T14:19:53;1.40;80.20
47532;DHT22;33273;52.254;7.988;2022-11-20T14:22:26;1.40;80.30
47532;DHT22;33273;52.254;7.988;2022-11-20T14:27:27;1.40;80.40
47532;DHT22;33273;52.254;7.988;2022-11-20T14:29:56;1.40;80.60
47532;DHT22;33273;52.254;7.988;2022-11-20T14:32:26;1.40;80.60
47532;DHT22;33273;52.254;7.988;2022-11-20T14:34:53;1.40;80.50
47532;DHT22;33273;52.254;7.988;2022-11-20T14:37:28;1.40;80.50
47532;DHT22;33273;52.254;7.988;2022-11-20T14:39:56;1.40;80.40
47532;DHT22;33273;52.254;7.988;2022-11-20T14:42:26;1.40;80.20
47532;DHT22;33273;52.254;7.988;2022-11-20T14:44:57;1.40;80.20
47532;DHT22;33273;52.254;7.988;2022-11-20T14:47:31;1.40;80.00
47532;DHT22;33273;52.254;7.988;2022-11-20T14:49:57;1.40;80.00
47532;DHT22;33273;52.254;7.988;2022-11-20T14:52:26;1.40;80.10
47532;DHT22;33273;52.254;7.988;2022-11-20T14:54:57;1.30;80.10
47532;DHT22;33273;52.254;7.988;2022-11-20T14:57:31;1.30;80.30
47532;DHT22;33273;52.254;7.988;2022-11-20T15:02:41;1.30;82.00
47532;DHT22;33273;52.254;7.988;2022-11-20T15:05:07;1.30;82.00
47532;DHT22;33273;52.254;7.988;2022-11-20T15:07:36;1.30;82.00
47532;DHT22;33273;52.254;7.988;2022-11-20T15:10:08;1.40;83.10
47532;DHT22;33273;52.254;7.988;2022-11-20T15:12:37;1.30;81.30
47532;DHT22;33273;52.254;7.988;2022-11-20T15:15:05;1.30;80.80
47532;DHT22;33273;52.254;7.988;2022-11-20T15:17:32;1.20;80.50
47532;DHT22;33273;52.254;7.988;2022-11-20T15:20:02;1.20;80.50
47532;DHT22;33273;52.254;7.988;2022-11-20T15:22:31;1.20;80.40
47532;DHT22;33273;52.254;7.988;2022-11-20T15:24:57;1.10;80.50
47532;DHT22;33273;52.254;7.988;2022-11-20T15:27:23;1.20;80.70
47532;DHT22;33273;52.254;7.988;2022-11-20T15:29:50;1.10;80.80
47532;DHT22;33273;52.254;7.988;2022-11-20T15:32:16;1.10;80.90
47532;DHT22;33273;52.254;7.988;2022-11-20T15:34:43;1.10;81.10
47532;DHT22;33273;52.254;7.988;2022-11-20T15:37:09;1.10;81.20
47532;DHT22;33273;52.254;7.988;2022-11-20T15:39:35;1.00;81.20
47532;DHT22;33273;52.254;7.988;2022-11-20T15:42:01;1.00;81.70
47532;DHT22;33273;52.254;7.988;2022-11-20T15:44:26;1.00;81.80
47532;DHT22;33273;52.254;7.988;2022-11-20T15:46:52;1.00;82.10
47532;DHT22;33273;52.254;7.988;2022-11-20T15:49:18;1.00;82.30
47532;DHT22;33273;52.254;7.988;2022-11-20T15:51:47;0.90;83.40
47532;DHT22;33273;52.254;7.988;2022-11-20T15:54:20;0.90;83.00
47532;DHT22;33273;52.254;7.988;2022-11-20T15:56:47;0.90;83.20
47532;DHT22;33273;52.254;7.988;2022-11-20T15:59:13;0.90;83.70
47532;DHT22;33273;52.254;7.988;2022-11-20T16:01:42;0.80;83.80
47532;DHT22;33273;52.254;7.988;2022-11-20T16:04:13;0.80;83.90
47532;DHT22;33273;52.254;7.988;2022-11-20T16:06:39;0.80;84.10
47532;DHT22;33273;52.254;7.988;2022-11-20T16:09:06;0.80;84.50
47532;DHT22;33273;52.254;7.988;2022-11-20T16:11:32;0.70;84.70
47532;DHT22;33273;52.254;7.988;2022-11-20T16:13:58;0.70;85.20
47532;DHT22;33273;52.254;7.988;2022-11-20T16:16:42;0.70;85.50
47532;DHT22;33273;52.254;7.988;2022-11-20T16:19:12;0.70;85.70
47532;DHT22;33273;52.254;7.988;2022-11-20T16:21:39;0.70;85.50
47532;DHT22;33273;52.254;7.988;2022-11-20T16:24:08;0.70;85.70
47532;DHT22;33273;52.254;7.988;2022-11-20T16:26:35;0.70;85.80
47532;DHT22;33273;52.254;7.988;2022-11-20T16:29:02;0.70;86.00
47532;DHT22;33273;52.254;7.988;2022-11-20T16:31:28;0.70;86.40
47532;DHT22;33273;52.254;7.988;2022-11-20T16:33:56;0.70;86.50
47532;DHT22;33273;52.254;7.988;2022-11-20T16:36:24;0.70;86.40
47532;DHT22;33273;52.254;7.988;2022-11-20T16:38:55;0.70;86.50
47532;DHT22;33273;52.254;7.988;2022-11-20T16:41:22;0.70;86.60
47532;DHT22;33273;52.254;7.988;2022-11-20T16:43:48;0.70;86.70
47532;DHT22;33273;52.254;7.988;2022-11-20T16:46:15;0.60;86.70
47532;DHT22;33273;52.254;7.988;2022-11-20T16:48:43;0.70;86.70
47532;DHT22;33273;52.254;7.988;2022-11-20T16:51:10;0.60;86.80
47532;DHT22;33273;52.254;7.988;2022-11-20T16:53:37;0.60;86.90
47532;DHT22;33273;52.254;7.988;2022-11-20T16:56:14;0.70;87.00
47532;DHT22;33273;52.254;7.988;2022-11-20T16:58:44;0.60;87.10
47532;DHT22;33273;52.254;7.988;2022-11-20T17:01:13;0.60;87.00
47532;DHT22;33273;52.254;7.988;2022-11-20T17:03:40;0.70;87.00
47532;DHT22;33273;52.254;7.988;2022-11-20T17:06:13;0.70;87.00
47532;DHT22;33273;52.254;7.988;2022-11-20T17:08:39;0.60;86.80
47532;DHT22;33273;52.254;7.988;2022-11-20T17:11:06;0.70;86.50
47532;DHT22;33273;52.254;7.988;2022-11-20T17:13:32;0.60;86.40
47532;DHT22;33273;52.254;7.988;2022-11-20T17:16:07;0.70;86.50
47532;DHT22;33273;52.254;7.988;2022-11-20T17:18:33;0.70;86.60
47532;DHT22;33273;52.254;7.988;2022-11-20T17:21:00;0.70;86.40
47532;DHT22;33273;52.254;7.988;2022-11-20T17:23:31;0.70;86.30
47532;DHT22;33273;52.254;7.988;2022-11-20T17:26:19;0.70;86.20
47532;DHT22;33273;52.254;7.988;2022-11-20T17:28:57;0.70;86.10
47532;DHT22;33273;52.254;7.988;2022-11-20T17:31:26;0.70;86.30
47532;DHT22;33273;52.254;7.988;2022-11-20T17:33:52;0.70;86.20
47532;DHT22;33273;52.254;7.988;2022-11-20T17:36:19;0.70;86.30
47532;DHT22;33273;52.254;7.988;2022-11-20T17:38:45;0.70;86.40
47532;DHT22;33273;52.254;7.988;2022-11-20T17:41:13;0.70;86.60